createdAt,value
2019-05-05T00:04:58.401Z,4.7
2019-05-05T00:09:58.243Z,4.6
2019-05-05T00:14:58.292Z,4.4
2019-05-05T00:19:58.203Z,4.4
2019-05-05T00:24:58.278Z,4.3
2019-05-05T00:29:58.211Z,4.1
2019-05-05T00:34:58.268Z,4
2019-05-05T00:39:58.251Z,4
2019-05-05T00:44:58.277Z,4
2019-05-05T00:49:58.265Z,4
2019-05-05T00:54:58.295Z,4
2019-05-05T00:59:58.481Z,3.9
2019-05-05T01:04:58.223Z,3.9
2019-05-05T01:09:58.279Z,3.9
2019-05-05T01:14:58.390Z,3.9
2019-05-05T01:20:02.944Z,3.9
2019-05-05T01:24:58.293Z,3.8
2019-05-05T01:29:58.298Z,3.8
2019-05-05T01:34:58.311Z,3.9
2019-05-05T01:39:58.292Z,3.9
2019-05-05T01:44:58.474Z,4
2019-05-05T01:49:58.284Z,4
2019-05-05T01:54:58.542Z,4
2019-05-05T01:59:58.373Z,4
2019-05-05T02:04:58.504Z,4
2019-05-05T02:09:58.434Z,4
2019-05-05T02:14:58.336Z,3.9
2019-05-05T02:19:58.264Z,3.9
2019-05-05T02:24:58.317Z,3.8
2019-05-05T02:29:58.304Z,3.8
2019-05-05T02:34:58.317Z,3.7
2019-05-05T02:40:03.152Z,3.6
2019-05-05T02:44:58.340Z,3.6
2019-05-05T02:49:58.509Z,3.6
2019-05-05T02:54:58.326Z,3.5
2019-05-05T02:59:58.579Z,3.5
2019-05-05T03:04:58.514Z,3.5
2019-05-05T03:09:58.321Z,3.5
2019-05-05T03:14:58.575Z,3.4
2019-05-05T03:19:58.502Z,3.4
2019-05-05T03:24:58.513Z,3.4
2019-05-05T03:29:58.351Z,3.4
2019-05-05T03:34:58.511Z,3.4
2019-05-05T03:39:58.538Z,3.4
2019-05-05T03:44:58.370Z,3.4
2019-05-05T03:49:58.495Z,3.3
2019-05-05T03:54:58.352Z,3.3
2019-05-05T03:59:58.358Z,3.3
2019-05-05T04:04:58.370Z,3.3
2019-05-05T04:09:58.319Z,3.3
2019-05-05T04:14:58.359Z,3.3
2019-05-05T04:19:58.493Z,3.3
2019-05-05T04:24:58.477Z,3.3
2019-05-05T04:29:58.598Z,3.3
2019-05-05T04:34:58.565Z,3.3
2019-05-05T04:39:58.538Z,3.2
2019-05-05T04:44:58.590Z,3.2
2019-05-05T04:49:58.391Z,3.2
2019-05-05T04:54:58.519Z,3.2
2019-05-05T04:59:58.563Z,3.2
2019-05-05T05:04:58.436Z,3.2
2019-05-05T05:09:58.418Z,3.3
2019-05-05T05:14:58.495Z,3.3
2019-05-05T05:19:58.418Z,3.4
2019-05-05T05:24:58.411Z,3.4
2019-05-05T05:29:58.559Z,3.4
2019-05-05T05:34:58.405Z,3.5
2019-05-05T05:39:58.657Z,3.6
2019-05-05T05:44:58.569Z,3.6
2019-05-05T05:49:58.428Z,3.7
2019-05-05T05:54:58.653Z,3.7
2019-05-05T05:59:58.438Z,3.8
2019-05-05T06:04:58.437Z,3.9
2019-05-05T06:09:58.592Z,4
2019-05-05T06:14:58.664Z,4.1
2019-05-05T06:19:58.548Z,4.1
2019-05-05T06:24:58.643Z,4.2
2019-05-05T06:29:58.679Z,4.2
2019-05-05T06:34:58.450Z,4.3
2019-05-05T06:39:58.449Z,4.3
2019-05-05T06:44:58.691Z,4.4
2019-05-05T06:49:58.587Z,4.4
2019-05-05T06:54:58.622Z,4.5
2019-05-05T06:59:58.661Z,4.6
2019-05-05T07:04:58.451Z,4.7
2019-05-05T07:09:58.490Z,4.8
2019-05-05T07:14:58.682Z,4.8
2019-05-05T07:19:58.716Z,5
2019-05-05T07:24:58.631Z,5
2019-05-05T07:29:58.685Z,5.1
2019-05-05T07:34:58.764Z,5.1
2019-05-05T07:39:58.477Z,5.1
2019-05-05T07:44:58.678Z,5.1
2019-05-05T07:49:58.499Z,5.1
2019-05-05T07:54:58.499Z,5.1
2019-05-05T07:59:58.658Z,5.1
2019-05-05T08:04:58.714Z,5.2
2019-05-05T08:09:58.627Z,5.2
2019-05-05T08:14:58.493Z,5.2
2019-05-05T08:19:58.505Z,5.2
2019-05-05T08:24:58.742Z,5.3
2019-05-05T08:30:02.046Z,5.4
2019-05-05T08:35:00.872Z,5.4
2019-05-05T08:39:58.742Z,5.4
2019-05-05T08:44:58.676Z,5.5
2019-05-05T08:49:58.856Z,5.5
2019-05-05T08:54:58.540Z,5.5
2019-05-05T08:59:58.810Z,5.4
2019-05-05T09:04:58.695Z,5.5
2019-05-05T09:09:58.707Z,5.5
2019-05-05T09:14:58.559Z,5.5
2019-05-05T09:19:58.511Z,5.6
2019-05-05T09:24:58.543Z,5.7
2019-05-05T09:29:58.697Z,5.7
2019-05-05T09:34:58.830Z,5.7
2019-05-05T09:39:58.529Z,5.7
2019-05-05T09:44:58.745Z,5.7
2019-05-05T09:49:58.807Z,5.7
2019-05-05T09:54:59.003Z,5.6
2019-05-05T09:59:58.847Z,5.7
2019-05-05T10:04:59.019Z,5.7
2019-05-05T10:09:58.765Z,5.7
2019-05-05T10:14:59.196Z,5.9
2019-05-05T10:19:59.529Z,6.2
2019-05-05T10:24:58.651Z,6.3
2019-05-05T10:29:58.705Z,6.6
2019-05-05T10:34:58.610Z,6.8
2019-05-05T10:39:58.955Z,6.9
2019-05-05T10:44:58.791Z,7.1
2019-05-05T10:49:58.835Z,7.3
2019-05-05T10:54:58.601Z,7.5
2019-05-05T11:00:09.186Z,7.8
2019-05-05T11:04:59.013Z,7.9
2019-05-05T11:09:58.584Z,8
2019-05-05T11:14:58.617Z,8.1
2019-05-05T11:19:58.546Z,8.2
2019-05-05T11:25:01.091Z,8.2
2019-05-05T11:29:58.754Z,8.3
2019-05-05T11:35:00.659Z,8.3
2019-05-05T11:39:58.842Z,8.4
2019-05-05T11:44:58.637Z,8.4
2019-05-05T11:49:58.619Z,8.3
2019-05-05T11:55:09.561Z,8.1
2019-05-05T11:59:58.598Z,8
2019-05-05T12:04:58.622Z,7.9
2019-05-05T12:09:58.828Z,7.8
2019-05-05T12:14:58.640Z,7.7
2019-05-05T12:19:58.743Z,7.8
2019-05-05T12:24:58.855Z,7.9
2019-05-05T12:29:58.623Z,8
2019-05-05T12:34:58.628Z,8.1
2019-05-05T12:39:58.766Z,8.2
2019-05-05T12:44:58.645Z,8.2
2019-05-05T12:49:58.648Z,8.2
2019-05-05T12:55:01.688Z,8.3
2019-05-05T12:59:58.662Z,8.3
2019-05-05T13:04:59.226Z,8.3
2019-05-05T13:09:58.794Z,8.1
2019-05-05T13:14:58.606Z,8.1
2019-05-05T13:19:58.805Z,7.9
2019-05-05T13:24:59.141Z,7.8
2019-05-05T13:29:59.204Z,7.7
2019-05-05T13:34:58.935Z,7.6
2019-05-05T13:39:58.860Z,7.5
2019-05-05T13:44:58.667Z,7.5
2019-05-05T13:49:58.909Z,7.4
2019-05-05T13:54:58.670Z,7.4
2019-05-05T13:59:58.763Z,7.4
2019-05-05T14:04:58.947Z,7.5
2019-05-05T14:09:59.039Z,7.5
2019-05-05T14:14:58.880Z,7.6
2019-05-05T14:20:04.608Z,7.5
2019-05-05T14:24:59.067Z,7.4
2019-05-05T14:29:58.832Z,7.4
2019-05-05T14:34:58.742Z,7.4
2019-05-05T14:39:59.659Z,7.4
2019-05-05T14:44:59.407Z,7.4
2019-05-05T14:49:59.760Z,7.4
2019-05-05T14:54:59.446Z,7.4
2019-05-05T14:59:58.976Z,7.3
2019-05-05T15:04:59.848Z,7.2
2019-05-05T15:10:01.465Z,7
2019-05-05T15:14:58.879Z,6.8
2019-05-05T15:19:58.919Z,6.8
2019-05-05T15:24:59.674Z,6.8
2019-05-05T15:29:59.381Z,6.9
2019-05-05T15:34:59.248Z,6.9
2019-05-05T15:39:58.972Z,6.9
2019-05-05T15:44:58.884Z,6.8
2019-05-05T15:49:58.846Z,6.8
2019-05-05T15:54:58.772Z,6.8
2019-05-05T15:59:58.842Z,6.8
2019-05-05T16:04:58.916Z,6.9
2019-05-05T16:09:59.041Z,6.9
2019-05-05T16:14:58.948Z,6.9
2019-05-05T16:19:58.781Z,6.9
2019-05-05T16:24:58.807Z,6.9
2019-05-05T16:29:59.403Z,6.9
2019-05-05T16:34:58.792Z,6.9
2019-05-05T16:39:59.043Z,6.9
2019-05-05T16:44:59.186Z,6.8
2019-05-05T16:49:58.931Z,6.7
2019-05-05T16:54:58.786Z,6.6
2019-05-05T16:59:58.810Z,6.6
2019-05-05T17:04:59.023Z,6.5
2019-05-05T17:09:58.805Z,6.4
2019-05-05T17:14:58.840Z,6.3
2019-05-05T17:19:59.071Z,6.2
2019-05-05T17:24:58.954Z,6.1
2019-05-05T17:29:58.813Z,6
2019-05-05T17:34:58.939Z,6
2019-05-05T17:39:59.061Z,6
2019-05-05T17:44:58.804Z,5.9
2019-05-05T17:49:59.034Z,5.9
2019-05-05T17:54:59.078Z,5.8
2019-05-05T17:59:58.993Z,5.8
2019-05-05T18:04:58.961Z,5.7
2019-05-05T18:09:59.055Z,5.7
2019-05-05T18:14:58.833Z,5.7
2019-05-05T18:19:58.857Z,5.6
2019-05-05T18:24:58.891Z,5.6
2019-05-05T18:29:58.851Z,5.5
2019-05-05T18:34:58.856Z,5.5
2019-05-05T18:39:58.840Z,5.5
2019-05-05T18:44:58.826Z,5.5
2019-05-05T18:49:58.857Z,5.5
2019-05-05T18:54:58.859Z,5.4
2019-05-05T18:59:58.854Z,5.4
2019-05-05T19:04:59.043Z,5.4
2019-05-05T19:09:58.869Z,5.4
2019-05-05T19:14:59.108Z,5.4
2019-05-05T19:19:58.863Z,5.4
2019-05-05T19:24:58.886Z,5.4
2019-05-05T19:29:58.876Z,5.4
2019-05-05T19:34:58.868Z,5.4
2019-05-05T19:39:58.874Z,5.4
2019-05-05T19:44:58.850Z,5.4
2019-05-05T19:49:58.868Z,5.4
2019-05-05T19:54:58.899Z,5.4
2019-05-05T19:59:58.865Z,5.3
2019-05-05T20:04:58.829Z,5.3
2019-05-05T20:09:58.914Z,5.3
2019-05-05T20:14:58.881Z,5.3
2019-05-05T20:19:58.861Z,5.3
2019-05-05T20:24:59.017Z,5.3
2019-05-05T20:29:59.070Z,5.3
2019-05-05T20:34:58.879Z,5.3
2019-05-05T20:39:58.856Z,5.3
2019-05-05T20:44:58.876Z,5.3
2019-05-05T20:49:58.837Z,5.3
2019-05-05T20:54:58.907Z,5.3
2019-05-05T20:59:58.898Z,5.3
2019-05-05T21:04:59.011Z,5.3
2019-05-05T21:09:59.251Z,5.3
2019-05-05T21:14:59.061Z,5.3
2019-05-05T21:19:58.909Z,5.3
2019-05-05T21:24:58.882Z,5.3
2019-05-05T21:29:58.920Z,5.3
2019-05-05T21:34:59.109Z,5.3
2019-05-05T21:39:58.888Z,5.3
2019-05-05T21:44:58.903Z,5.3
2019-05-05T21:49:58.906Z,5.3
2019-05-05T21:54:58.913Z,5.3
2019-05-05T21:59:59.082Z,5.3
2019-05-05T22:04:58.904Z,5.2
2019-05-05T22:09:58.928Z,5.1
2019-05-05T22:14:58.927Z,5.1
2019-05-05T22:19:58.914Z,5
2019-05-05T22:24:59.023Z,5
2019-05-05T22:30:09.366Z,5
2019-05-05T22:34:59.043Z,5
2019-05-05T22:39:58.927Z,5
2019-05-05T22:44:58.944Z,5
2019-05-05T22:49:58.916Z,5
2019-05-05T22:54:59.132Z,5
2019-05-05T22:59:58.945Z,5
2019-05-05T23:04:58.939Z,5
2019-05-05T23:09:58.953Z,5
2019-05-05T23:14:58.954Z,4.9
2019-05-05T23:19:58.968Z,4.9
2019-05-05T23:24:58.961Z,4.9
2019-05-05T23:29:58.973Z,4.9
2019-05-05T23:34:59.200Z,4.9
2019-05-05T23:39:58.960Z,4.9
2019-05-05T23:44:58.957Z,4.9
2019-05-05T23:49:59.224Z,4.9
2019-05-05T23:54:58.929Z,4.9
2019-05-05T23:59:58.975Z,4.8
